Aviation Digital Data Service (ADDS)

Output produced by METARs form (1720 UTC 23 September 2020)
found at http://aviationweather.gov/metar/data/
 
KHDC 231715Z AUTO 11006KT 4SM -RA SCT016 BKN023 OVC040 23/22 A2989 RMK AO2 P0020
KHDC 231655Z AUTO 13006KT 1 1/4SM +RA BKN022 OVC032 23/22 A2990 RMK AO2 P0031
KHDC 231635Z AUTO 12008KT 5SM -RA SCT017 BKN034 OVC070 23/22 A2990 RMK AO2 LTG DSNT S P0011
KHDC 231123Z 2312/2412 09008KT P6SM SCT015 BKN050 
     FM231300 10008KT P6SM BKN015 
     FM231600 12009KT P6SM VCSH BKN020 
     FM232200 13009KT 5SM -SHRA BR VCTS BKN015CB 
     FM240300 14009KT P6SM VCSH BKN008